sensor_id;sensor_type;location;lat;lon;timestamp;temperature;humidity
52387;DHT22;38317;53.084;6.960;2023-05-19T00:01:39;9.10;99.90
52387;DHT22;38317;53.084;6.960;2023-05-19T00:04:08;9.10;99.90
52387;DHT22;38317;53.084;6.960;2023-05-19T00:06:34;9.10;99.90
52387;DHT22;38317;53.084;6.960;2023-05-19T00:09:06;9.10;99.90
52387;DHT22;38317;53.084;6.960;2023-05-19T00:11:32;9.10;99.90
52387;DHT22;38317;53.084;6.960;2023-05-19T00:14:01;9.00;99.90
52387;DHT22;38317;53.084;6.960;2023-05-19T00:16:28;9.00;99.90
52387;DHT22;38317;53.084;6.960;2023-05-19T00:18:56;9.00;99.90
52387;DHT22;38317;53.084;6.960;2023-05-19T00:21:22;9.00;99.90
52387;DHT22;38317;53.084;6.960;2023-05-19T00:23:48;9.00;99.90
52387;DHT22;38317;53.084;6.960;2023-05-19T00:26:14;8.90;99.90
52387;DHT22;38317;53.084;6.960;2023-05-19T00:28:40;8.90;99.90
52387;DHT22;38317;53.084;6.960;2023-05-19T00:31:05;8.90;99.90
52387;DHT22;38317;53.084;6.960;2023-05-19T00:33:32;8.90;99.90
52387;DHT22;38317;53.084;6.960;2023-05-19T00:36:03;8.80;99.90
52387;DHT22;38317;53.084;6.960;2023-05-19T00:38:31;8.80;99.90
52387;DHT22;38317;53.084;6.960;2023-05-19T00:40:57;8.80;99.90
52387;DHT22;38317;53.084;6.960;2023-05-19T00:43:24;8.80;99.90
52387;DHT22;38317;53.084;6.960;2023-05-19T00:45:50;8.80;99.90
52387;DHT22;38317;53.084;6.960;2023-05-19T00:48:16;8.80;99.90
52387;DHT22;38317;53.084;6.960;2023-05-19T00:50:42;8.80;99.90
52387;DHT22;38317;53.084;6.960;2023-05-19T00:53:09;8.70;99.90
52387;DHT22;38317;53.084;6.960;2023-05-19T00:55:36;8.80;99.90
52387;DHT22;38317;53.084;6.960;2023-05-19T00:58:05;8.80;99.90
52387;DHT22;38317;53.084;6.960;2023-05-19T01:00:31;8.80;99.90
52387;DHT22;38317;53.084;6.960;2023-05-19T01:02:58;8.80;99.90
52387;DHT22;38317;53.084;6.960;2023-05-19T01:05:24;8.80;99.90
52387;DHT22;38317;53.084;6.960;2023-05-19T01:07:50;9.10;99.90
52387;DHT22;38317;53.084;6.960;2023-05-19T01:10:18;8.70;99.90
52387;DHT22;38317;53.084;6.960;2023-05-19T01:12:44;8.70;99.90
52387;DHT22;38317;53.084;6.960;2023-05-19T01:15:11;8.70;99.90
52387;DHT22;38317;53.084;6.960;2023-05-19T01:18:07;8.70;99.90
52387;DHT22;38317;53.084;6.960;2023-05-19T01:20:41;8.70;99.90
52387;DHT22;38317;53.084;6.960;2023-05-19T01:29:06;8.60;99.90
52387;DHT22;38317;53.084;6.960;2023-05-19T01:35:14;8.60;99.90
52387;DHT22;38317;53.084;6.960;2023-05-19T01:37:41;8.60;99.90
52387;DHT22;38317;53.084;6.960;2023-05-19T01:43:14;8.50;99.90
52387;DHT22;38317;53.084;6.960;2023-05-19T01:45:41;8.50;99.90
52387;DHT22;38317;53.084;6.960;2023-05-19T01:48:08;8.50;99.90
52387;DHT22;38317;53.084;6.960;2023-05-19T01:50:34;8.50;99.90
52387;DHT22;38317;53.084;6.960;2023-05-19T01:53:00;8.60;99.90
52387;DHT22;38317;53.084;6.960;2023-05-19T01:55:26;8.50;99.90
52387;DHT22;38317;53.084;6.960;2023-05-19T02:09:15;8.50;99.90
52387;DHT22;38317;53.084;6.960;2023-05-19T02:11:48;8.50;99.90
52387;DHT22;38317;53.084;6.960;2023-05-19T02:14:20;8.50;99.90
52387;DHT22;38317;53.084;6.960;2023-05-19T02:16:49;8.50;99.90
52387;DHT22;38317;53.084;6.960;2023-05-19T02:19:25;8.50;99.90
52387;DHT22;38317;53.084;6.960;2023-05-19T02:21:51;8.50;99.90
52387;DHT22;38317;53.084;6.960;2023-05-19T02:24:17;8.50;99.90
52387;DHT22;38317;53.084;6.960;2023-05-19T02:26:45;8.50;99.90
52387;DHT22;38317;53.084;6.960;2023-05-19T02:29:11;8.50;99.90
52387;DHT22;38317;53.084;6.960;2023-05-19T02:31:36;8.50;99.90
52387;DHT22;38317;53.084;6.960;2023-05-19T02:34:02;8.50;99.90
52387;DHT22;38317;53.084;6.960;2023-05-19T02:36:32;8.50;99.90
52387;DHT22;38317;53.084;6.960;2023-05-19T02:38:59;8.40;99.90
52387;DHT22;38317;53.084;6.960;2023-05-19T02:41:26;8.40;99.90
52387;DHT22;38317;53.084;6.960;2023-05-19T02:43:52;8.40;99.90
52387;DHT22;38317;53.084;6.960;2023-05-19T02:46:18;8.40;99.90
52387;DHT22;38317;53.084;6.960;2023-05-19T02:48:44;8.40;99.90
52387;DHT22;38317;53.084;6.960;2023-05-19T02:51:10;8.50;99.90
52387;DHT22;38317;53.084;6.960;2023-05-19T02:53:36;8.40;99.90
52387;DHT22;38317;53.084;6.960;2023-05-19T02:56:01;8.40;99.90
52387;DHT22;38317;53.084;6.960;2023-05-19T02:58:27;8.40;99.90
52387;DHT22;38317;53.084;6.960;2023-05-19T03:00:54;8.40;99.90
52387;DHT22;38317;53.084;6.960;2023-05-19T03:03:20;8.40;99.90
52387;DHT22;38317;53.084;6.960;2023-05-19T03:05:46;8.40;99.90
52387;DHT22;38317;53.084;6.960;2023-05-19T03:08:12;8.40;99.90
52387;DHT22;38317;53.084;6.960;2023-05-19T03:10:38;8.40;99.90
52387;DHT22;38317;53.084;6.960;2023-05-19T03:13:04;8.40;99.90
52387;DHT22;38317;53.084;6.960;2023-05-19T03:15:30;8.40;99.90
52387;DHT22;38317;53.084;6.960;2023-05-19T03:17:55;8.40;99.90
52387;DHT22;38317;53.084;6.960;2023-05-19T03:20:21;8.50;99.90
52387;DHT22;38317;53.084;6.960;2023-05-19T03:22:47;8.40;99.90
52387;DHT22;38317;53.084;6.960;2023-05-19T03:25:12;8.40;99.90
52387;DHT22;38317;53.084;6.960;2023-05-19T03:27:38;8.40;99.90
52387;DHT22;38317;53.084;6.960;2023-05-19T03:30:04;8.60;99.90
52387;DHT22;38317;53.084;6.960;2023-05-19T03:32:30;8.40;99.90
52387;DHT22;38317;53.084;6.960;2023-05-19T03:35:03;8.40;99.90
52387;DHT22;38317;53.084;6.960;2023-05-19T03:37:29;8.40;99.90
52387;DHT22;38317;53.084;6.960;2023-05-19T03:39:55;8.40;99.90
52387;DHT22;38317;53.084;6.960;2023-05-19T03:42:21;8.30;99.90
52387;DHT22;38317;53.084;6.960;2023-05-19T03:44:47;8.30;99.90
52387;DHT22;38317;53.084;6.960;2023-05-19T03:47:13;8.30;99.90
52387;DHT22;38317;53.084;6.960;2023-05-19T03:49:39;8.30;99.90
52387;DHT22;38317;53.084;6.960;2023-05-19T03:52:05;8.30;99.90
52387;DHT22;38317;53.084;6.960;2023-05-19T03:54:30;8.30;99.90
52387;DHT22;38317;53.084;6.960;2023-05-19T03:56:56;8.30;99.90
52387;DHT22;38317;53.084;6.960;2023-05-19T03:59:22;8.30;99.90
52387;DHT22;38317;53.084;6.960;2023-05-19T04:01:49;8.20;99.90
52387;DHT22;38317;53.084;6.960;2023-05-19T04:04:15;8.20;99.90
52387;DHT22;38317;53.084;6.960;2023-05-19T04:06:41;8.20;99.90
52387;DHT22;38317;53.084;6.960;2023-05-19T04:09:12;8.20;99.90
52387;DHT22;38317;53.084;6.960;2023-05-19T04:11:38;8.20;99.90
52387;DHT22;38317;53.084;6.960;2023-05-19T04:14:05;8.10;99.90
52387;DHT22;38317;53.084;6.960;2023-05-19T04:16:31;8.10;99.90
52387;DHT22;38317;53.084;6.960;2023-05-19T04:18:58;8.10;99.90
52387;DHT22;38317;53.084;6.960;2023-05-19T04:21:24;8.10;99.90
52387;DHT22;38317;53.084;6.960;2023-05-19T04:23:50;8.10;99.90
52387;DHT22;38317;53.084;6.960;2023-05-19T04:26:16;8.10;99.90
52387;DHT22;38317;53.084;6.960;2023-05-19T04:28:42;8.10;99.90
52387;DHT22;38317;53.084;6.960;2023-05-19T04:31:12;8.10;99.90
52387;DHT22;38317;53.084;6.960;2023-05-19T04:33:39;8.20;99.90
52387;DHT22;38317;53.084;6.960;2023-05-19T04:36:08;8.10;99.90
52387;DHT22;38317;53.084;6.960;2023-05-19T04:38:35;8.20;99.90
52387;DHT22;38317;53.084;6.960;2023-05-19T04:41:07;8.20;99.90
52387;DHT22;38317;53.084;6.960;2023-05-19T04:43:36;8.20;99.90
52387;DHT22;38317;53.084;6.960;2023-05-19T04:46:06;8.20;99.90
52387;DHT22;38317;53.084;6.960;2023-05-19T04:48:34;8.30;99.90
52387;DHT22;38317;53.084;6.960;2023-05-19T04:51:00;8.30;99.90
52387;DHT22;38317;53.084;6.960;2023-05-19T04:53:27;8.20;99.90
52387;DHT22;38317;53.084;6.960;2023-05-19T04:55:54;8.30;99.90
52387;DHT22;38317;53.084;6.960;2023-05-19T04:58:19;8.30;99.90
52387;DHT22;38317;53.084;6.960;2023-05-19T05:00:45;8.30;99.90
52387;DHT22;38317;53.084;6.960;2023-05-19T05:03:11;8.30;99.90
52387;DHT22;38317;53.084;6.960;2023-05-19T05:05:39;8.30;99.90
52387;DHT22;38317;53.084;6.960;2023-05-19T05:08:05;8.40;99.90
52387;DHT22;38317;53.084;6.960;2023-05-19T05:10:31;8.50;99.90
52387;DHT22;38317;53.084;6.960;2023-05-19T05:12:57;8.50;99.90
52387;DHT22;38317;53.084;6.960;2023-05-19T05:15:26;8.50;99.90
52387;DHT22;38317;53.084;6.960;2023-05-19T05:17:54;8.60;99.90
52387;DHT22;38317;53.084;6.960;2023-05-19T05:20:21;8.60;99.90
52387;DHT22;38317;53.084;6.960;2023-05-19T05:22:47;8.70;99.90
52387;DHT22;38317;53.084;6.960;2023-05-19T05:25:14;8.70;99.90
52387;DHT22;38317;53.084;6.960;2023-05-19T05:27:40;8.70;99.90
52387;DHT22;38317;53.084;6.960;2023-05-19T05:30:08;8.80;99.90
52387;DHT22;38317;53.084;6.960;2023-05-19T05:32:34;8.70;99.90
52387;DHT22;38317;53.084;6.960;2023-05-19T05:35:00;8.80;99.90
52387;DHT22;38317;53.084;6.960;2023-05-19T05:37:27;9.20;99.90
52387;DHT22;38317;53.084;6.960;2023-05-19T05:39:52;8.80;99.90
52387;DHT22;38317;53.084;6.960;2023-05-19T05:42:18;8.80;99.90
52387;DHT22;38317;53.084;6.960;2023-05-19T05:44:44;8.80;99.90
52387;DHT22;38317;53.084;6.960;2023-05-19T05:47:10;8.90;99.90
52387;DHT22;38317;53.084;6.960;2023-05-19T05:49:37;9.00;99.90
52387;DHT22;38317;53.084;6.960;2023-05-19T05:52:04;9.00;99.90
52387;DHT22;38317;53.084;6.960;2023-05-19T05:54:30;9.10;99.90
52387;DHT22;38317;53.084;6.960;2023-05-19T05:56:56;9.00;99.90
52387;DHT22;38317;53.084;6.960;2023-05-19T05:59:21;9.10;99.90
52387;DHT22;38317;53.084;6.960;2023-05-19T06:01:47;9.20;99.90
52387;DHT22;38317;53.084;6.960;2023-05-19T06:04:13;9.20;99.90
52387;DHT22;38317;53.084;6.960;2023-05-19T06:06:39;9.30;99.90
52387;DHT22;38317;53.084;6.960;2023-05-19T06:09:04;9.30;99.90
52387;DHT22;38317;53.084;6.960;2023-05-19T06:11:30;9.40;99.90
52387;DHT22;38317;53.084;6.960;2023-05-19T06:13:56;9.40;99.90
52387;DHT22;38317;53.084;6.960;2023-05-19T06:16:22;9.50;99.90
52387;DHT22;38317;53.084;6.960;2023-05-19T06:18:48;9.60;99.90
52387;DHT22;38317;53.084;6.960;2023-05-19T06:21:14;9.60;99.90
52387;DHT22;38317;53.084;6.960;2023-05-19T06:23:40;9.70;99.90
52387;DHT22;38317;53.084;6.960;2023-05-19T06:26:05;9.70;99.90
52387;DHT22;38317;53.084;6.960;2023-05-19T06:28:32;9.70;99.90
52387;DHT22;38317;53.084;6.960;2023-05-19T06:30:58;9.80;99.90
52387;DHT22;38317;53.084;6.960;2023-05-19T06:33:24;9.80;99.90
52387;DHT22;38317;53.084;6.960;2023-05-19T06:35:50;9.90;99.90
52387;DHT22;38317;53.084;6.960;2023-05-19T06:38:16;10.00;99.90
52387;DHT22;38317;53.084;6.960;2023-05-19T06:40:42;10.00;99.90
52387;DHT22;38317;53.084;6.960;2023-05-19T06:43:08;10.10;99.90
52387;DHT22;38317;53.084;6.960;2023-05-19T06:45:34;10.10;99.90
52387;DHT22;38317;53.084;6.960;2023-05-19T06:47:59;10.20;99.90
52387;DHT22;38317;53.084;6.960;2023-05-19T06:50:25;10.20;99.90
52387;DHT22;38317;53.084;6.960;2023-05-19T06:52:51;10.30;99.90
52387;DHT22;38317;53.084;6.960;2023-05-19T06:55:17;10.30;99.90
52387;DHT22;38317;53.084;6.960;2023-05-19T06:57:43;10.40;99.90
52387;DHT22;38317;53.084;6.960;2023-05-19T07:00:09;10.40;99.90
52387;DHT22;38317;53.084;6.960;2023-05-19T07:02:39;10.50;99.90
52387;DHT22;38317;53.084;6.960;2023-05-19T07:05:05;10.60;99.90
52387;DHT22;38317;53.084;6.960;2023-05-19T07:07:32;10.70;99.90
52387;DHT22;38317;53.084;6.960;2023-05-19T07:09:58;10.80;99.90
52387;DHT22;38317;53.084;6.960;2023-05-19T07:12:24;10.90;99.90
52387;DHT22;38317;53.084;6.960;2023-05-19T07:14:51;11.00;99.90
52387;DHT22;38317;53.084;6.960;2023-05-19T07:17:17;11.10;99.90
52387;DHT22;38317;53.084;6.960;2023-05-19T07:19:43;11.10;99.90
52387;DHT22;38317;53.084;6.960;2023-05-19T07:22:08;11.20;99.90
52387;DHT22;38317;53.084;6.960;2023-05-19T07:24:34;11.30;99.90
52387;DHT22;38317;53.084;6.960;2023-05-19T07:27:00;11.40;99.90
52387;DHT22;38317;53.084;6.960;2023-05-19T07:29:26;11.60;99.90
52387;DHT22;38317;53.084;6.960;2023-05-19T07:31:51;11.80;99.90
52387;DHT22;38317;53.084;6.960;2023-05-19T07:34:22;12.00;99.90
52387;DHT22;38317;53.084;6.960;2023-05-19T07:36:48;12.20;99.90
52387;DHT22;38317;53.084;6.960;2023-05-19T07:39:14;12.30;99.90
52387;DHT22;38317;53.084;6.960;2023-05-19T07:41:39;12.70;99.90
52387;DHT22;38317;53.084;6.960;2023-05-19T07:44:05;12.80;99.90
52387;DHT22;38317;53.084;6.960;2023-05-19T07:46:35;13.00;99.90
52387;DHT22;38317;53.084;6.960;2023-05-19T07:49:02;13.10;99.90
52387;DHT22;38317;53.084;6.960;2023-05-19T07:51:28;13.30;99.90
52387;DHT22;38317;53.084;6.960;2023-05-19T07:53:54;13.50;99.90
52387;DHT22;38317;53.084;6.960;2023-05-19T07:56:19;13.70;99.90
52387;DHT22;38317;53.084;6.960;2023-05-19T07:58:46;13.90;99.90
52387;DHT22;38317;53.084;6.960;2023-05-19T08:01:11;14.10;99.90
52387;DHT22;38317;53.084;6.960;2023-05-19T08:03:37;14.40;99.90
52387;DHT22;38317;53.084;6.960;2023-05-19T08:06:03;14.50;99.90
52387;DHT22;38317;53.084;6.960;2023-05-19T08:08:29;14.70;99.90
52387;DHT22;38317;53.084;6.960;2023-05-19T08:10:55;14.80;99.90
52387;DHT22;38317;53.084;6.960;2023-05-19T08:13:20;15.00;99.90
52387;DHT22;38317;53.084;6.960;2023-05-19T08:15:46;15.20;99.90
52387;DHT22;38317;53.084;6.960;2023-05-19T08:18:12;15.40;99.90
52387;DHT22;38317;53.084;6.960;2023-05-19T08:20:37;15.50;99.90
52387;DHT22;38317;53.084;6.960;2023-05-19T08:23:03;15.80;99.90
52387;DHT22;38317;53.084;6.960;2023-05-19T08:25:29;15.90;99.90
52387;DHT22;38317;53.084;6.960;2023-05-19T08:27:55;16.10;99.90
52387;DHT22;38317;53.084;6.960;2023-05-19T08:30:21;16.20;99.90
52387;DHT22;38317;53.084;6.960;2023-05-19T08:32:47;16.20;99.90
52387;DHT22;38317;53.084;6.960;2023-05-19T08:35:13;16.20;99.90
52387;DHT22;38317;53.084;6.960;2023-05-19T08:37:39;16.40;99.90
52387;DHT22;38317;53.084;6.960;2023-05-19T08:40:05;16.60;99.90
52387;DHT22;38317;53.084;6.960;2023-05-19T08:42:33;16.70;99.90
52387;DHT22;38317;53.084;6.960;2023-05-19T08:45:00;16.70;99.90
52387;DHT22;38317;53.084;6.960;2023-05-19T08:47:26;16.90;99.90
52387;DHT22;38317;53.084;6.960;2023-05-19T08:49:57;17.30;99.90
52387;DHT22;38317;53.084;6.960;2023-05-19T08:52:50;17.20;99.90
52387;DHT22;38317;53.084;6.960;2023-05-19T08:56:08;17.30;99.90
52387;DHT22;38317;53.084;6.960;2023-05-19T08:58:26;17.40;99.90
52387;DHT22;38317;53.084;6.960;2023-05-19T09:00:52;17.50;99.90
52387;DHT22;38317;53.084;6.960;2023-05-19T09:03:20;17.70;99.90
52387;DHT22;38317;53.084;6.960;2023-05-19T09:05:47;17.80;99.90
52387;DHT22;38317;53.084;6.960;2023-05-19T09:08:13;17.90;99.90
52387;DHT22;38317;53.084;6.960;2023-05-19T09:10:38;18.00;99.90
52387;DHT22;38317;53.084;6.960;2023-05-19T09:13:04;18.00;99.90
52387;DHT22;38317;53.084;6.960;2023-05-19T09:15:31;18.10;99.90
52387;DHT22;38317;53.084;6.960;2023-05-19T09:18:11;18.20;99.90
52387;DHT22;38317;53.084;6.960;2023-05-19T09:20:42;18.20;99.90
52387;DHT22;38317;53.084;6.960;2023-05-19T09:23:16;18.10;97.10
52387;DHT22;38317;53.084;6.960;2023-05-19T09:25:49;18.10;98.40
52387;DHT22;38317;53.084;6.960;2023-05-19T09:28:28;18.30;99.90
52387;DHT22;38317;53.084;6.960;2023-05-19T09:31:02;18.50;99.90
52387;DHT22;38317;53.084;6.960;2023-05-19T09:33:28;18.70;99.20
52387;DHT22;38317;53.084;6.960;2023-05-19T09:35:54;18.90;97.20
52387;DHT22;38317;53.084;6.960;2023-05-19T09:38:24;18.80;97.80
52387;DHT22;38317;53.084;6.960;2023-05-19T09:40:55;18.90;97.20
52387;DHT22;38317;53.084;6.960;2023-05-19T09:43:31;19.10;99.00
52387;DHT22;38317;53.084;6.960;2023-05-19T09:46:09;19.20;98.80
52387;DHT22;38317;53.084;6.960;2023-05-19T09:48:37;19.40;98.70
52387;DHT22;38317;53.084;6.960;2023-05-19T09:51:04;19.40;99.10
52387;DHT22;38317;53.084;6.960;2023-05-19T09:53:33;19.60;97.80
52387;DHT22;38317;53.084;6.960;2023-05-19T09:56:00;19.70;98.00
52387;DHT22;38317;53.084;6.960;2023-05-19T09:58:33;19.50;91.80
52387;DHT22;38317;53.084;6.960;2023-05-19T10:01:03;19.50;96.20
52387;DHT22;38317;53.084;6.960;2023-05-19T10:03:30;19.60;96.80
52387;DHT22;38317;53.084;6.960;2023-05-19T10:05:59;19.50;95.30
52387;DHT22;38317;53.084;6.960;2023-05-19T10:08:27;19.60;95.50
52387;DHT22;38317;53.084;6.960;2023-05-19T10:10:55;19.70;96.30
52387;DHT22;38317;53.084;6.960;2023-05-19T10:13:22;19.80;95.80
52387;DHT22;38317;53.084;6.960;2023-05-19T10:15:49;19.90;95.90
52387;DHT22;38317;53.084;6.960;2023-05-19T10:18:16;19.90;95.10
52387;DHT22;38317;53.084;6.960;2023-05-19T10:20:43;20.00;95.30
52387;DHT22;38317;53.084;6.960;2023-05-19T10:23:09;20.10;94.80
52387;DHT22;38317;53.084;6.960;2023-05-19T10:25:35;20.20;95.10
52387;DHT22;38317;53.084;6.960;2023-05-19T10:28:08;20.40;95.70
52387;DHT22;38317;53.084;6.960;2023-05-19T10:30:41;20.50;95.20
52387;DHT22;38317;53.084;6.960;2023-05-19T10:33:10;20.30;93.10
52387;DHT22;38317;53.084;6.960;2023-05-19T10:36:23;19.90;92.10
52387;DHT22;38317;53.084;6.960;2023-05-19T10:46:24;19.80;89.00
52387;DHT22;38317;53.084;6.960;2023-05-19T10:48:51;19.80;89.70
52387;DHT22;38317;53.084;6.960;2023-05-19T10:51:17;19.80;92.00
52387;DHT22;38317;53.084;6.960;2023-05-19T10:53:42;19.80;91.00
52387;DHT22;38317;53.084;6.960;2023-05-19T10:56:29;19.90;92.50
52387;DHT22;38317;53.084;6.960;2023-05-19T10:58:57;20.10;92.70
52387;DHT22;38317;53.084;6.960;2023-05-19T11:01:30;20.30;92.90
52387;DHT22;38317;53.084;6.960;2023-05-19T11:03:56;20.40;89.90
52387;DHT22;38317;53.084;6.960;2023-05-19T11:06:29;20.20;90.00
52387;DHT22;38317;53.084;6.960;2023-05-19T11:09:13;20.30;90.10
52387;DHT22;38317;53.084;6.960;2023-05-19T11:11:53;20.30;90.70
52387;DHT22;38317;53.084;6.960;2023-05-19T11:14:25;20.40;91.70
52387;DHT22;38317;53.084;6.960;2023-05-19T11:16:55;20.40;91.10
52387;DHT22;38317;53.084;6.960;2023-05-19T11:19:31;20.50;91.90
52387;DHT22;38317;53.084;6.960;2023-05-19T11:27:25;20.30;91.30
52387;DHT22;38317;53.084;6.960;2023-05-19T11:29:53;20.30;91.90
52387;DHT22;38317;53.084;6.960;2023-05-19T11:32:21;20.10;92.50
52387;DHT22;38317;53.084;6.960;2023-05-19T11:34:48;20.20;91.50
52387;DHT22;38317;53.084;6.960;2023-05-19T11:37:14;20.30;90.80
52387;DHT22;38317;53.084;6.960;2023-05-19T11:39:40;20.20;91.60
52387;DHT22;38317;53.084;6.960;2023-05-19T11:42:09;20.40;91.70
52387;DHT22;38317;53.084;6.960;2023-05-19T11:44:35;20.60;91.70
52387;DHT22;38317;53.084;6.960;2023-05-19T11:47:06;20.50;91.20
52387;DHT22;38317;53.084;6.960;2023-05-19T11:49:32;20.30;90.70
52387;DHT22;38317;53.084;6.960;2023-05-19T11:52:02;19.80;91.20
52387;DHT22;38317;53.084;6.960;2023-05-19T11:54:32;19.60;91.50
52387;DHT22;38317;53.084;6.960;2023-05-19T11:57:00;19.70;91.60
52387;DHT22;38317;53.084;6.960;2023-05-19T11:59:34;19.70;92.20
52387;DHT22;38317;53.084;6.960;2023-05-19T12:02:01;19.70;91.30
52387;DHT22;38317;53.084;6.960;2023-05-19T12:04:29;19.80;91.60
52387;DHT22;38317;53.084;6.960;2023-05-19T12:06:55;20.00;92.10
52387;DHT22;38317;53.084;6.960;2023-05-19T12:09:24;20.00;92.30
52387;DHT22;38317;53.084;6.960;2023-05-19T12:11:50;20.00;91.70
52387;DHT22;38317;53.084;6.960;2023-05-19T12:14:17;19.90;91.80
52387;DHT22;38317;53.084;6.960;2023-05-19T12:16:43;19.70;91.80
52387;DHT22;38317;53.084;6.960;2023-05-19T12:19:09;19.30;92.10
52387;DHT22;38317;53.084;6.960;2023-05-19T12:21:35;19.00;92.40
52387;DHT22;38317;53.084;6.960;2023-05-19T12:24:01;18.90;92.60
52387;DHT22;38317;53.084;6.960;2023-05-19T12:26:27;19.10;93.20
52387;DHT22;38317;53.084;6.960;2023-05-19T12:28:54;19.40;93.40
52387;DHT22;38317;53.084;6.960;2023-05-19T12:31:20;19.70;92.90
52387;DHT22;38317;53.084;6.960;2023-05-19T12:33:48;19.80;92.00
52387;DHT22;38317;53.084;6.960;2023-05-19T12:36:17;19.80;91.50
52387;DHT22;38317;53.084;6.960;2023-05-19T12:38:43;19.60;90.20
52387;DHT22;38317;53.084;6.960;2023-05-19T12:41:13;19.40;90.40
52387;DHT22;38317;53.084;6.960;2023-05-19T12:43:39;19.40;91.50
52387;DHT22;38317;53.084;6.960;2023-05-19T12:46:09;19.50;91.50
52387;DHT22;38317;53.084;6.960;2023-05-19T12:48:42;19.70;88.80
52387;DHT22;38317;53.084;6.960;2023-05-19T12:51:09;19.80;91.10
52387;DHT22;38317;53.084;6.960;2023-05-19T12:53:36;20.00;90.40
52387;DHT22;38317;53.084;6.960;2023-05-19T12:56:12;20.00;91.00
52387;DHT22;38317;53.084;6.960;2023-05-19T12:58:39;20.10;90.70
52387;DHT22;38317;53.084;6.960;2023-05-19T13:01:06;20.30;86.50
52387;DHT22;38317;53.084;6.960;2023-05-19T13:03:38;20.40;88.10
52387;DHT22;38317;53.084;6.960;2023-05-19T13:06:06;20.40;89.50
52387;DHT22;38317;53.084;6.960;2023-05-19T13:08:32;20.20;85.40
52387;DHT22;38317;53.084;6.960;2023-05-19T13:10:58;20.10;87.10
52387;DHT22;38317;53.084;6.960;2023-05-19T13:13:23;20.00;88.90
52387;DHT22;38317;53.084;6.960;2023-05-19T13:15:49;19.90;88.90
52387;DHT22;38317;53.084;6.960;2023-05-19T13:18:15;19.60;89.10
52387;DHT22;38317;53.084;6.960;2023-05-19T13:20:43;19.40;90.10
52387;DHT22;38317;53.084;6.960;2023-05-19T13:23:10;19.50;90.60
52387;DHT22;38317;53.084;6.960;2023-05-19T13:25:36;19.50;90.70
52387;DHT22;38317;53.084;6.960;2023-05-19T13:28:02;19.40;90.80
52387;DHT22;38317;53.084;6.960;2023-05-19T13:30:34;19.40;91.30
52387;DHT22;38317;53.084;6.960;2023-05-19T13:33:00;19.30;91.30
52387;DHT22;38317;53.084;6.960;2023-05-19T13:35:26;19.40;91.70
52387;DHT22;38317;53.084;6.960;2023-05-19T13:37:52;19.70;91.50
52387;DHT22;38317;53.084;6.960;2023-05-19T13:40:18;20.00;91.00
52387;DHT22;38317;53.084;6.960;2023-05-19T13:42:44;20.10;86.80
52387;DHT22;38317;53.084;6.960;2023-05-19T13:45:10;20.10;89.20
52387;DHT22;38317;53.084;6.960;2023-05-19T13:47:36;20.00;90.00
52387;DHT22;38317;53.084;6.960;2023-05-19T13:50:03;20.00;90.00
52387;DHT22;38317;53.084;6.960;2023-05-19T13:52:30;20.00;88.70
52387;DHT22;38317;53.084;6.960;2023-05-19T13:54:56;20.20;90.20
52387;DHT22;38317;53.084;6.960;2023-05-19T13:57:25;20.20;88.10
52387;DHT22;38317;53.084;6.960;2023-05-19T13:59:51;20.00;88.40
52387;DHT22;38317;53.084;6.960;2023-05-19T14:02:17;19.90;89.20
52387;DHT22;38317;53.084;6.960;2023-05-19T14:04:43;19.90;89.90
52387;DHT22;38317;53.084;6.960;2023-05-19T14:07:08;20.10;89.50
52387;DHT22;38317;53.084;6.960;2023-05-19T14:09:35;20.20;87.30
52387;DHT22;38317;53.084;6.960;2023-05-19T14:12:01;20.30;87.30
52387;DHT22;38317;53.084;6.960;2023-05-19T14:14:27;20.50;87.90
52387;DHT22;38317;53.084;6.960;2023-05-19T14:16:53;20.60;85.50
52387;DHT22;38317;53.084;6.960;2023-05-19T14:19:19;20.70;85.70
52387;DHT22;38317;53.084;6.960;2023-05-19T14:21:45;20.60;85.80
52387;DHT22;38317;53.084;6.960;2023-05-19T14:24:10;20.40;86.50
52387;DHT22;38317;53.084;6.960;2023-05-19T14:26:36;20.10;86.90
52387;DHT22;38317;53.084;6.960;2023-05-19T14:29:02;20.10;86.00
52387;DHT22;38317;53.084;6.960;2023-05-19T14:31:28;20.10;85.70
52387;DHT22;38317;53.084;6.960;2023-05-19T14:33:53;20.10;86.10
52387;DHT22;38317;53.084;6.960;2023-05-19T14:36:19;20.20;86.30
52387;DHT22;38317;53.084;6.960;2023-05-19T14:38:45;20.40;87.00
52387;DHT22;38317;53.084;6.960;2023-05-19T14:41:11;20.40;86.10
52387;DHT22;38317;53.084;6.960;2023-05-19T14:43:37;20.30;85.10
52387;DHT22;38317;53.084;6.960;2023-05-19T14:46:02;20.10;86.00
52387;DHT22;38317;53.084;6.960;2023-05-19T14:48:28;20.00;86.90
52387;DHT22;38317;53.084;6.960;2023-05-19T14:50:54;19.90;87.20
52387;DHT22;38317;53.084;6.960;2023-05-19T14:53:20;20.10;87.80
52387;DHT22;38317;53.084;6.960;2023-05-19T14:55:48;20.20;86.60
52387;DHT22;38317;53.084;6.960;2023-05-19T14:58:15;20.30;85.10
52387;DHT22;38317;53.084;6.960;2023-05-19T15:00:43;20.20;81.40
52387;DHT22;38317;53.084;6.960;2023-05-19T15:03:09;20.20;83.30
52387;DHT22;38317;53.084;6.960;2023-05-19T15:05:36;20.20;82.40
52387;DHT22;38317;53.084;6.960;2023-05-19T15:08:05;20.30;82.40
52387;DHT22;38317;53.084;6.960;2023-05-19T15:10:31;20.30;84.20
52387;DHT22;38317;53.084;6.960;2023-05-19T15:12:57;20.40;85.00
52387;DHT22;38317;53.084;6.960;2023-05-19T15:15:25;20.20;85.50
52387;DHT22;38317;53.084;6.960;2023-05-19T15:17:51;20.00;86.20
52387;DHT22;38317;53.084;6.960;2023-05-19T15:20:16;19.70;86.50
52387;DHT22;38317;53.084;6.960;2023-05-19T15:22:42;19.50;87.00
52387;DHT22;38317;53.084;6.960;2023-05-19T15:25:08;19.30;87.00
52387;DHT22;38317;53.084;6.960;2023-05-19T15:27:34;19.10;88.90
52387;DHT22;38317;53.084;6.960;2023-05-19T15:30:03;18.90;89.70
52387;DHT22;38317;53.084;6.960;2023-05-19T15:32:30;18.90;90.60
52387;DHT22;38317;53.084;6.960;2023-05-19T15:34:55;19.00;90.50
52387;DHT22;38317;53.084;6.960;2023-05-19T15:37:21;19.20;90.20
52387;DHT22;38317;53.084;6.960;2023-05-19T15:39:47;19.40;90.80
52387;DHT22;38317;53.084;6.960;2023-05-19T15:42:13;19.60;90.40
52387;DHT22;38317;53.084;6.960;2023-05-19T15:44:38;19.70;90.30
52387;DHT22;38317;53.084;6.960;2023-05-19T15:47:04;19.70;90.60
52387;DHT22;38317;53.084;6.960;2023-05-19T15:49:30;19.60;90.20
52387;DHT22;38317;53.084;6.960;2023-05-19T15:51:56;19.40;90.30
52387;DHT22;38317;53.084;6.960;2023-05-19T15:54:21;19.30;90.50
52387;DHT22;38317;53.084;6.960;2023-05-19T15:56:47;19.20;90.40
52387;DHT22;38317;53.084;6.960;2023-05-19T15:59:13;19.30;90.70
52387;DHT22;38317;53.084;6.960;2023-05-19T16:01:39;19.40;91.10
52387;DHT22;38317;53.084;6.960;2023-05-19T16:04:04;19.60;90.80
52387;DHT22;38317;53.084;6.960;2023-05-19T16:06:30;19.50;91.20
52387;DHT22;38317;53.084;6.960;2023-05-19T16:08:56;19.30;91.60
52387;DHT22;38317;53.084;6.960;2023-05-19T16:11:22;19.10;91.80
52387;DHT22;38317;53.084;6.960;2023-05-19T16:13:48;19.00;91.90
52387;DHT22;38317;53.084;6.960;2023-05-19T16:16:14;18.70;91.80